sensor_id;sensor_type;location;lat;lon;timestamp;P1;durP1;ratioP1;P2;durP2;ratioP2
52740;SDS011;38634;52.138;9.912;2023-12-04T00:02:34;16.77;;;4.72;;
52740;SDS011;38634;52.138;9.912;2023-12-04T00:05:19;18.67;;;4.78;;
52740;SDS011;38634;52.138;9.912;2023-12-04T00:08:03;19.48;;;4.68;;
52740;SDS011;38634;52.138;9.912;2023-12-04T00:10:48;17.58;;;5.38;;
52740;SDS011;38634;52.138;9.912;2023-12-04T00:13:34;18.50;;;5.00;;
52740;SDS011;38634;52.138;9.912;2023-12-04T00:16:22;11.85;;;4.20;;
52740;SDS011;38634;52.138;9.912;2023-12-04T00:19:06;15.00;;;4.45;;
52740;SDS011;38634;52.138;9.912;2023-12-04T00:21:51;11.77;;;4.22;;
52740;SDS011;38634;52.138;9.912;2023-12-04T00:24:35;15.93;;;4.93;;
52740;SDS011;38634;52.138;9.912;2023-12-04T00:27:21;25.83;;;6.97;;
52740;SDS011;38634;52.138;9.912;2023-12-04T00:30:10;14.75;;;4.25;;
52740;SDS011;38634;52.138;9.912;2023-12-04T00:32:57;16.60;;;4.70;;
52740;SDS011;38634;52.138;9.912;2023-12-04T00:35:42;17.52;;;4.80;;
52740;SDS011;38634;52.138;9.912;2023-12-04T00:38:26;17.52;;;4.55;;
52740;SDS011;38634;52.138;9.912;2023-12-04T00:41:11;19.60;;;5.00;;
52740;SDS011;38634;52.138;9.912;2023-12-04T00:43:55;20.48;;;6.07;;
52740;SDS011;38634;52.138;9.912;2023-12-04T00:46:41;16.02;;;5.22;;
52740;SDS011;38634;52.138;9.912;2023-12-04T00:49:25;20.00;;;7.35;;
52740;SDS011;38634;52.138;9.912;2023-12-04T00:52:13;18.80;;;6.82;;
52740;SDS011;38634;52.138;9.912;2023-12-04T00:55:01;17.20;;;5.72;;
52740;SDS011;38634;52.138;9.912;2023-12-04T00:57:46;16.77;;;4.50;;
52740;SDS011;38634;52.138;9.912;2023-12-04T01:00:31;19.73;;;6.70;;
52740;SDS011;38634;52.138;9.912;2023-12-04T01:03:15;17.38;;;5.28;;
52740;SDS011;38634;52.138;9.912;2023-12-04T01:06:00;18.20;;;5.70;;
52740;SDS011;38634;52.138;9.912;2023-12-04T01:08:44;15.82;;;4.72;;
52740;SDS011;38634;52.138;9.912;2023-12-04T01:11:29;18.42;;;4.63;;
52740;SDS011;38634;52.138;9.912;2023-12-04T01:14:14;16.90;;;5.18;;
52740;SDS011;38634;52.138;9.912;2023-12-04T01:16:58;21.67;;;5.75;;
52740;SDS011;38634;52.138;9.912;2023-12-04T01:19:42;21.90;;;5.38;;
52740;SDS011;38634;52.138;9.912;2023-12-04T01:22:27;20.00;;;5.78;;
52740;SDS011;38634;52.138;9.912;2023-12-04T01:25:12;21.40;;;5.88;;
52740;SDS011;38634;52.138;9.912;2023-12-04T01:27:56;20.20;;;5.45;;
52740;SDS011;38634;52.138;9.912;2023-12-04T01:30:41;17.70;;;4.45;;
52740;SDS011;38634;52.138;9.912;2023-12-04T01:33:26;18.50;;;5.25;;
52740;SDS011;38634;52.138;9.912;2023-12-04T01:36:10;18.25;;;4.65;;
52740;SDS011;38634;52.138;9.912;2023-12-04T01:38:55;20.45;;;6.18;;
52740;SDS011;38634;52.138;9.912;2023-12-04T01:41:39;16.63;;;4.75;;
52740;SDS011;38634;52.138;9.912;2023-12-04T01:44:24;19.95;;;5.72;;
52740;SDS011;38634;52.138;9.912;2023-12-04T01:47:08;20.23;;;6.65;;
52740;SDS011;38634;52.138;9.912;2023-12-04T01:49:54;14.38;;;4.50;;
52740;SDS011;38634;52.138;9.912;2023-12-04T01:52:38;22.10;;;5.20;;
52740;SDS011;38634;52.138;9.912;2023-12-04T01:55:23;28.02;;;6.35;;
52740;SDS011;38634;52.138;9.912;2023-12-04T01:58:08;15.57;;;4.70;;
52740;SDS011;38634;52.138;9.912;2023-12-04T02:00:54;18.55;;;4.72;;
52740;SDS011;38634;52.138;9.912;2023-12-04T02:03:40;16.95;;;5.68;;
52740;SDS011;38634;52.138;9.912;2023-12-04T02:06:25;19.27;;;6.60;;
52740;SDS011;38634;52.138;9.912;2023-12-04T02:09:09;18.15;;;5.15;;
52740;SDS011;38634;52.138;9.912;2023-12-04T02:11:56;22.50;;;5.72;;
52740;SDS011;38634;52.138;9.912;2023-12-04T02:14:41;16.88;;;4.55;;
52740;SDS011;38634;52.138;9.912;2023-12-04T02:17:27;27.10;;;6.18;;
52740;SDS011;38634;52.138;9.912;2023-12-04T02:20:12;20.25;;;5.18;;
52740;SDS011;38634;52.138;9.912;2023-12-04T02:22:57;18.48;;;4.80;;
52740;SDS011;38634;52.138;9.912;2023-12-04T02:25:42;20.38;;;5.03;;
52740;SDS011;38634;52.138;9.912;2023-12-04T02:28:29;17.88;;;4.53;;
52740;SDS011;38634;52.138;9.912;2023-12-04T02:31:17;16.73;;;4.43;;
52740;SDS011;38634;52.138;9.912;2023-12-04T02:34:02;20.05;;;4.88;;
52740;SDS011;38634;52.138;9.912;2023-12-04T02:36:49;19.05;;;5.75;;
52740;SDS011;38634;52.138;9.912;2023-12-04T02:39:36;18.23;;;4.55;;
52740;SDS011;38634;52.138;9.912;2023-12-04T02:42:20;19.75;;;5.47;;
52740;SDS011;38634;52.138;9.912;2023-12-04T02:45:08;18.38;;;5.28;;
52740;SDS011;38634;52.138;9.912;2023-12-04T02:47:53;20.35;;;5.22;;
52740;SDS011;38634;52.138;9.912;2023-12-04T02:50:37;18.15;;;4.88;;
52740;SDS011;38634;52.138;9.912;2023-12-04T02:53:22;19.73;;;4.97;;
52740;SDS011;38634;52.138;9.912;2023-12-04T02:56:07;18.73;;;5.55;;
52740;SDS011;38634;52.138;9.912;2023-12-04T02:58:52;16.02;;;5.03;;
52740;SDS011;38634;52.138;9.912;2023-12-04T03:01:36;17.30;;;5.63;;
52740;SDS011;38634;52.138;9.912;2023-12-04T03:04:21;15.23;;;4.78;;
52740;SDS011;38634;52.138;9.912;2023-12-04T11:31:35;56.17;;;10.65;;
52740;SDS011;38634;52.138;9.912;2023-12-04T11:34:20;24.80;;;6.05;;
52740;SDS011;38634;52.138;9.912;2023-12-04T11:37:04;37.17;;;7.28;;
52740;SDS011;38634;52.138;9.912;2023-12-04T11:39:49;60.35;;;11.18;;
52740;SDS011;38634;52.138;9.912;2023-12-04T11:42:35;46.08;;;9.88;;
52740;SDS011;38634;52.138;9.912;2023-12-04T11:45:19;27.20;;;6.07;;
52740;SDS011;38634;52.138;9.912;2023-12-04T11:48:04;29.33;;;6.50;;
52740;SDS011;38634;52.138;9.912;2023-12-04T11:50:49;47.80;;;9.50;;
52740;SDS011;38634;52.138;9.912;2023-12-04T11:53:38;46.20;;;9.82;;
52740;SDS011;38634;52.138;9.912;2023-12-04T11:56:25;23.65;;;5.75;;
52740;SDS011;38634;52.138;9.912;2023-12-04T11:59:10;38.63;;;8.52;;
52740;SDS011;38634;52.138;9.912;2023-12-04T12:01:56;50.28;;;10.13;;
52740;SDS011;38634;52.138;9.912;2023-12-04T12:04:41;31.83;;;8.10;;
52740;SDS011;38634;52.138;9.912;2023-12-04T12:07:26;29.95;;;6.57;;
52740;SDS011;38634;52.138;9.912;2023-12-04T12:10:12;39.60;;;8.90;;
52740;SDS011;38634;52.138;9.912;2023-12-04T12:12:57;43.33;;;9.55;;
52740;SDS011;38634;52.138;9.912;2023-12-04T12:15:42;36.47;;;7.63;;
52740;SDS011;38634;52.138;9.912;2023-12-04T12:18:26;24.88;;;5.57;;
52740;SDS011;38634;52.138;9.912;2023-12-04T12:21:11;34.35;;;7.50;;
52740;SDS011;38634;52.138;9.912;2023-12-04T12:23:56;59.75;;;11.35;;
52740;SDS011;38634;52.138;9.912;2023-12-04T12:26:40;32.03;;;6.82;;
52740;SDS011;38634;52.138;9.912;2023-12-04T12:29:25;19.67;;;5.53;;
52740;SDS011;38634;52.138;9.912;2023-12-04T12:32:11;33.60;;;6.90;;
52740;SDS011;38634;52.138;9.912;2023-12-04T12:34:56;58.67;;;11.02;;
52740;SDS011;38634;52.138;9.912;2023-12-04T12:37:40;40.38;;;7.90;;
52740;SDS011;38634;52.138;9.912;2023-12-04T12:40:27;24.60;;;5.68;;
52740;SDS011;38634;52.138;9.912;2023-12-04T12:43:13;47.47;;;9.27;;
52740;SDS011;38634;52.138;9.912;2023-12-04T12:45:58;51.60;;;9.63;;
52740;SDS011;38634;52.138;9.912;2023-12-04T12:48:43;30.27;;;6.15;;
52740;SDS011;38634;52.138;9.912;2023-12-04T12:51:28;28.00;;;6.70;;
52740;SDS011;38634;52.138;9.912;2023-12-04T12:54:13;37.22;;;7.20;;
52740;SDS011;38634;52.138;9.912;2023-12-04T12:57:01;45.17;;;9.02;;
52740;SDS011;38634;52.138;9.912;2023-12-04T12:59:46;41.83;;;8.60;;
52740;SDS011;38634;52.138;9.912;2023-12-04T13:02:33;30.20;;;6.45;;
52740;SDS011;38634;52.138;9.912;2023-12-04T13:05:20;56.25;;;10.23;;
52740;SDS011;38634;52.138;9.912;2023-12-04T13:08:05;55.83;;;10.02;;
52740;SDS011;38634;52.138;9.912;2023-12-04T13:10:49;27.17;;;6.30;;
52740;SDS011;38634;52.138;9.912;2023-12-04T13:13:34;35.10;;;7.78;;
52740;SDS011;38634;52.138;9.912;2023-12-04T13:16:19;53.95;;;10.82;;
52740;SDS011;38634;52.138;9.912;2023-12-04T13:19:04;53.15;;;10.43;;
52740;SDS011;38634;52.138;9.912;2023-12-04T13:21:49;20.98;;;5.45;;
52740;SDS011;38634;52.138;9.912;2023-12-04T13:24:34;29.00;;;5.88;;
52740;SDS011;38634;52.138;9.912;2023-12-04T13:27:19;59.03;;;10.48;;
52740;SDS011;38634;52.138;9.912;2023-12-04T13:30:07;55.00;;;11.45;;
52740;SDS011;38634;52.138;9.912;2023-12-04T13:32:52;27.25;;;6.75;;
52740;SDS011;38634;52.138;9.912;2023-12-04T13:35:37;42.88;;;8.05;;
52740;SDS011;38634;52.138;9.912;2023-12-04T13:38:21;63.08;;;11.90;;
52740;SDS011;38634;52.138;9.912;2023-12-04T13:41:06;51.78;;;9.77;;
52740;SDS011;38634;52.138;9.912;2023-12-04T13:44:09;59.53;;;10.95;;
52740;SDS011;38634;52.138;9.912;2023-12-04T13:46:58;31.75;;;6.55;;
52740;SDS011;38634;52.138;9.912;2023-12-04T13:49:42;27.00;;;6.05;;
52740;SDS011;38634;52.138;9.912;2023-12-04T13:52:30;58.47;;;10.60;;
52740;SDS011;38634;52.138;9.912;2023-12-04T13:55:17;32.95;;;6.50;;
52740;SDS011;38634;52.138;9.912;2023-12-04T13:58:17;57.13;;;10.63;;
52740;SDS011;38634;52.138;9.912;2023-12-04T14:01:20;49.33;;;9.07;;
52740;SDS011;38634;52.138;9.912;2023-12-04T14:04:07;62.90;;;11.43;;
52740;SDS011;38634;52.138;9.912;2023-12-04T14:06:54;33.03;;;6.50;;
52740;SDS011;38634;52.138;9.912;2023-12-04T14:09:39;29.38;;;5.80;;
52740;SDS011;38634;52.138;9.912;2023-12-04T14:12:24;57.55;;;10.27;;
52740;SDS011;38634;52.138;9.912;2023-12-04T14:15:08;57.05;;;10.52;;
52740;SDS011;38634;52.138;9.912;2023-12-04T14:17:53;25.23;;;5.72;;
52740;SDS011;38634;52.138;9.912;2023-12-04T14:20:38;29.77;;;6.90;;
52740;SDS011;38634;52.138;9.912;2023-12-04T14:23:23;47.97;;;9.65;;
52740;SDS011;38634;52.138;9.912;2023-12-04T14:26:07;50.00;;;9.23;;
52740;SDS011;38634;52.138;9.912;2023-12-04T14:28:52;34.10;;;7.53;;
52740;SDS011;38634;52.138;9.912;2023-12-04T14:31:37;25.17;;;5.38;;
52740;SDS011;38634;52.138;9.912;2023-12-04T14:34:21;43.70;;;8.25;;
52740;SDS011;38634;52.138;9.912;2023-12-04T14:37:06;55.15;;;9.88;;
52740;SDS011;38634;52.138;9.912;2023-12-04T14:39:51;38.95;;;7.60;;
52740;SDS011;38634;52.138;9.912;2023-12-04T14:42:36;27.27;;;5.80;;
52740;SDS011;38634;52.138;9.912;2023-12-04T14:45:20;37.20;;;7.20;;
52740;SDS011;38634;52.138;9.912;2023-12-04T14:48:05;59.60;;;10.65;;
52740;SDS011;38634;52.138;9.912;2023-12-04T14:50:53;34.85;;;7.22;;
52740;SDS011;38634;52.138;9.912;2023-12-04T14:53:41;20.65;;;4.65;;
52740;SDS011;38634;52.138;9.912;2023-12-04T14:56:44;18.00;;;4.68;;
52740;SDS011;38634;52.138;9.912;2023-12-04T14:59:52;32.25;;;6.60;;
52740;SDS011;38634;52.138;9.912;2023-12-04T15:02:55;40.55;;;8.02;;
52740;SDS011;38634;52.138;9.912;2023-12-04T15:06:18;30.83;;;6.43;;
52740;SDS011;38634;52.138;9.912;2023-12-04T15:09:22;23.08;;;6.30;;
52740;SDS011;38634;52.138;9.912;2023-12-04T15:12:28;30.80;;;6.03;;
52740;SDS011;38634;52.138;9.912;2023-12-04T15:15:19;48.55;;;9.35;;
52740;SDS011;38634;52.138;9.912;2023-12-04T15:18:22;50.15;;;8.75;;
52740;SDS011;38634;52.138;9.912;2023-12-04T15:21:19;22.42;;;5.30;;
52740;SDS011;38634;52.138;9.912;2023-12-04T15:24:06;31.52;;;6.93;;
52740;SDS011;38634;52.138;9.912;2023-12-04T15:26:51;49.50;;;10.35;;
52740;SDS011;38634;52.138;9.912;2023-12-04T15:29:35;52.65;;;10.02;;
52740;SDS011;38634;52.138;9.912;2023-12-04T15:32:20;28.70;;;5.97;;
52740;SDS011;38634;52.138;9.912;2023-12-04T15:35:05;26.15;;;6.43;;
52740;SDS011;38634;52.138;9.912;2023-12-04T15:37:51;55.45;;;10.20;;
52740;SDS011;38634;52.138;9.912;2023-12-04T15:40:35;54.78;;;10.90;;
52740;SDS011;38634;52.138;9.912;2023-12-04T15:43:20;29.42;;;6.25;;
52740;SDS011;38634;52.138;9.912;2023-12-04T15:46:04;40.13;;;8.02;;
52740;SDS011;38634;52.138;9.912;2023-12-04T15:48:50;52.53;;;9.75;;
52740;SDS011;38634;52.138;9.912;2023-12-04T15:51:34;49.90;;;9.65;;
52740;SDS011;38634;52.138;9.912;2023-12-04T15:54:19;33.72;;;6.93;;
52740;SDS011;38634;52.138;9.912;2023-12-04T15:57:04;29.77;;;6.13;;
52740;SDS011;38634;52.138;9.912;2023-12-04T15:59:49;46.50;;;8.93;;
52740;SDS011;38634;52.138;9.912;2023-12-04T16:02:33;53.38;;;10.10;;
52740;SDS011;38634;52.138;9.912;2023-12-04T16:05:18;39.65;;;7.82;;
52740;SDS011;38634;52.138;9.912;2023-12-04T16:08:02;27.73;;;6.00;;
52740;SDS011;38634;52.138;9.912;2023-12-04T16:10:47;36.90;;;7.40;;
52740;SDS011;38634;52.138;9.912;2023-12-04T16:13:32;54.65;;;10.55;;
52740;SDS011;38634;52.138;9.912;2023-12-04T16:16:16;47.03;;;9.35;;
52740;SDS011;38634;52.138;9.912;2023-12-04T16:19:01;25.45;;;5.50;;
52740;SDS011;38634;52.138;9.912;2023-12-04T16:21:47;28.55;;;6.65;;
52740;SDS011;38634;52.138;9.912;2023-12-04T16:24:32;49.22;;;9.93;;
52740;SDS011;38634;52.138;9.912;2023-12-04T16:27:16;49.80;;;10.18;;
52740;SDS011;38634;52.138;9.912;2023-12-04T16:30:01;23.15;;;5.82;;
52740;SDS011;38634;52.138;9.912;2023-12-04T16:32:45;24.75;;;6.07;;
52740;SDS011;38634;52.138;9.912;2023-12-04T16:35:30;32.45;;;7.32;;
52740;SDS011;38634;52.138;9.912;2023-12-04T16:38:14;34.15;;;7.38;;
52740;SDS011;38634;52.138;9.912;2023-12-04T16:40:59;25.08;;;5.93;;
52740;SDS011;38634;52.138;9.912;2023-12-04T16:43:44;28.58;;;6.40;;
52740;SDS011;38634;52.138;9.912;2023-12-04T16:46:28;44.08;;;8.88;;
52740;SDS011;38634;52.138;9.912;2023-12-04T16:49:14;44.42;;;9.48;;
52740;SDS011;38634;52.138;9.912;2023-12-04T16:51:59;33.83;;;7.18;;
52740;SDS011;38634;52.138;9.912;2023-12-04T16:54:44;31.45;;;6.70;;
52740;SDS011;38634;52.138;9.912;2023-12-04T16:57:30;52.25;;;10.15;;
52740;SDS011;38634;52.138;9.912;2023-12-04T17:00:15;47.40;;;9.52;;
52740;SDS011;38634;52.138;9.912;2023-12-04T17:03:00;38.17;;;7.72;;
52740;SDS011;38634;52.138;9.912;2023-12-04T17:05:44;29.90;;;7.47;;
52740;SDS011;38634;52.138;9.912;2023-12-04T17:08:29;39.28;;;8.25;;
52740;SDS011;38634;52.138;9.912;2023-12-04T17:11:14;53.65;;;11.20;;
52740;SDS011;38634;52.138;9.912;2023-12-04T17:13:58;40.17;;;8.13;;
52740;SDS011;38634;52.138;9.912;2023-12-04T17:16:43;19.67;;;5.47;;
52740;SDS011;38634;52.138;9.912;2023-12-04T17:19:28;35.30;;;7.43;;
52740;SDS011;38634;52.138;9.912;2023-12-04T17:22:14;50.33;;;11.05;;
52740;SDS011;38634;52.138;9.912;2023-12-04T17:25:00;37.85;;;8.52;;
52740;SDS011;38634;52.138;9.912;2023-12-04T17:27:45;30.52;;;7.05;;
52740;SDS011;38634;52.138;9.912;2023-12-04T17:30:29;33.90;;;7.72;;
52740;SDS011;38634;52.138;9.912;2023-12-04T17:33:14;41.38;;;9.30;;
52740;SDS011;38634;52.138;9.912;2023-12-04T17:35:58;40.45;;;8.68;;
52740;SDS011;38634;52.138;9.912;2023-12-04T17:38:45;21.15;;;5.47;;
52740;SDS011;38634;52.138;9.912;2023-12-04T17:41:30;29.60;;;6.30;;
52740;SDS011;38634;52.138;9.912;2023-12-04T17:44:15;54.22;;;10.63;;
52740;SDS011;38634;52.138;9.912;2023-12-04T17:46:59;54.08;;;10.05;;
52740;SDS011;38634;52.138;9.912;2023-12-04T17:49:44;23.92;;;5.25;;
52740;SDS011;38634;52.138;9.912;2023-12-04T17:52:29;29.77;;;6.47;;
52740;SDS011;38634;52.138;9.912;2023-12-04T17:55:14;55.90;;;10.27;;
52740;SDS011;38634;52.138;9.912;2023-12-04T17:57:59;46.17;;;9.37;;
52740;SDS011;38634;52.138;9.912;2023-12-04T18:00:45;23.20;;;4.97;;
52740;SDS011;38634;52.138;9.912;2023-12-04T18:03:29;30.17;;;6.20;;
52740;SDS011;38634;52.138;9.912;2023-12-04T18:06:14;58.95;;;10.75;;
52740;SDS011;38634;52.138;9.912;2023-12-04T18:09:12;25.42;;;5.43;;
52740;SDS011;38634;52.138;9.912;2023-12-04T18:11:56;43.97;;;8.48;;
52740;SDS011;38634;52.138;9.912;2023-12-04T18:16:23;48.53;;;7.65;;
52740;SDS011;38634;52.138;9.912;2023-12-04T18:19:08;32.80;;;5.97;;
52740;SDS011;38634;52.138;9.912;2023-12-04T18:21:52;22.40;;;6.10;;
52740;SDS011;38634;52.138;9.912;2023-12-04T18:24:37;23.08;;;5.55;;
52740;SDS011;38634;52.138;9.912;2023-12-04T18:27:22;29.25;;;6.40;;
52740;SDS011;38634;52.138;9.912;2023-12-04T18:30:06;22.83;;;5.38;;
52740;SDS011;38634;52.138;9.912;2023-12-04T18:32:52;20.30;;;5.55;;
52740;SDS011;38634;52.138;9.912;2023-12-04T18:35:36;16.38;;;4.30;;
52740;SDS011;38634;52.138;9.912;2023-12-04T18:38:24;14.73;;;3.90;;
52740;SDS011;38634;52.138;9.912;2023-12-04T18:41:38;15.00;;;3.88;;
52740;SDS011;38634;52.138;9.912;2023-12-04T18:44:24;14.63;;;3.70;;
52740;SDS011;38634;52.138;9.912;2023-12-04T18:47:09;21.65;;;4.80;;
52740;SDS011;38634;52.138;9.912;2023-12-04T18:49:57;20.98;;;4.88;;
52740;SDS011;38634;52.138;9.912;2023-12-04T18:52:42;21.20;;;4.95;;
52740;SDS011;38634;52.138;9.912;2023-12-04T18:55:26;17.60;;;3.95;;
52740;SDS011;38634;52.138;9.912;2023-12-04T18:58:11;18.75;;;4.95;;
52740;SDS011;38634;52.138;9.912;2023-12-04T19:00:57;18.80;;;4.28;;
52740;SDS011;38634;52.138;9.912;2023-12-04T19:03:44;20.00;;;4.82;;
52740;SDS011;38634;52.138;9.912;2023-12-04T19:06:29;19.55;;;4.53;;
52740;SDS011;38634;52.138;9.912;2023-12-04T19:09:13;22.75;;;5.22;;
52740;SDS011;38634;52.138;9.912;2023-12-04T19:11:58;21.38;;;4.55;;
52740;SDS011;38634;52.138;9.912;2023-12-04T19:14:42;36.97;;;13.55;;
52740;SDS011;38634;52.138;9.912;2023-12-04T19:17:27;49.72;;;20.52;;
52740;SDS011;38634;52.138;9.912;2023-12-04T19:20:12;32.17;;;14.65;;
52740;SDS011;38634;52.138;9.912;2023-12-04T19:22:57;29.85;;;12.05;;
52740;SDS011;38634;52.138;9.912;2023-12-04T19:25:44;25.85;;;11.32;;
52740;SDS011;38634;52.138;9.912;2023-12-04T19:28:28;28.60;;;11.50;;
52740;SDS011;38634;52.138;9.912;2023-12-04T19:31:14;24.85;;;7.88;;
52740;SDS011;38634;52.138;9.912;2023-12-04T19:34:01;15.95;;;3.90;;
52740;SDS011;38634;52.138;9.912;2023-12-04T19:36:46;19.92;;;5.43;;
52740;SDS011;38634;52.138;9.912;2023-12-04T19:39:32;22.60;;;6.13;;
52740;SDS011;38634;52.138;9.912;2023-12-04T19:42:20;21.50;;;4.78;;
52740;SDS011;38634;52.138;9.912;2023-12-04T19:45:05;22.75;;;5.07;;
52740;SDS011;38634;52.138;9.912;2023-12-04T19:47:53;20.02;;;5.10;;
52740;SDS011;38634;52.138;9.912;2023-12-04T19:50:37;20.48;;;4.40;;
52740;SDS011;38634;52.138;9.912;2023-12-04T19:53:23;23.45;;;5.00;;
52740;SDS011;38634;52.138;9.912;2023-12-04T19:56:08;17.98;;;4.18;;
52740;SDS011;38634;52.138;9.912;2023-12-04T19:58:53;20.52;;;4.63;;
52740;SDS011;38634;52.138;9.912;2023-12-04T20:01:39;21.65;;;4.97;;
52740;SDS011;38634;52.138;9.912;2023-12-04T20:04:29;21.00;;;4.75;;
52740;SDS011;38634;52.138;9.912;2023-12-04T20:07:15;26.20;;;5.75;;
52740;SDS011;38634;52.138;9.912;2023-12-04T20:10:00;24.42;;;5.43;;
52740;SDS011;38634;52.138;9.912;2023-12-04T20:12:44;19.30;;;4.78;;
52740;SDS011;38634;52.138;9.912;2023-12-04T20:15:29;19.58;;;5.35;;
52740;SDS011;38634;52.138;9.912;2023-12-04T20:18:13;16.80;;;4.03;;
52740;SDS011;38634;52.138;9.912;2023-12-04T20:20:58;17.83;;;4.15;;
52740;SDS011;38634;52.138;9.912;2023-12-04T20:23:43;21.23;;;5.13;;
52740;SDS011;38634;52.138;9.912;2023-12-04T20:26:27;21.42;;;4.95;;
52740;SDS011;38634;52.138;9.912;2023-12-04T20:29:12;21.70;;;4.88;;
52740;SDS011;38634;52.138;9.912;2023-12-04T20:31:57;16.73;;;4.28;;
52740;SDS011;38634;52.138;9.912;2023-12-04T20:34:42;15.75;;;4.78;;
52740;SDS011;38634;52.138;9.912;2023-12-04T20:37:27;26.02;;;5.57;;
52740;SDS011;38634;52.138;9.912;2023-12-04T20:40:12;17.63;;;4.38;;
52740;SDS011;38634;52.138;9.912;2023-12-04T20:42:56;13.23;;;3.50;;
52740;SDS011;38634;52.138;9.912;2023-12-04T20:45:41;16.90;;;4.00;;
52740;SDS011;38634;52.138;9.912;2023-12-04T20:48:28;20.98;;;12.13;;
52740;SDS011;38634;52.138;9.912;2023-12-04T20:51:16;30.95;;;18.40;;
52740;SDS011;38634;52.138;9.912;2023-12-04T20:54:02;21.20;;;11.50;;
52740;SDS011;38634;52.138;9.912;2023-12-04T20:56:46;19.77;;;5.00;;
52740;SDS011;38634;52.138;9.912;2023-12-04T20:59:32;18.15;;;5.13;;
52740;SDS011;38634;52.138;9.912;2023-12-04T21:02:17;19.48;;;4.78;;
52740;SDS011;38634;52.138;9.912;2023-12-04T21:05:01;17.25;;;4.35;;
52740;SDS011;38634;52.138;9.912;2023-12-04T21:07:46;20.55;;;4.75;;
52740;SDS011;38634;52.138;9.912;2023-12-04T21:10:30;19.92;;;4.97;;
52740;SDS011;38634;52.138;9.912;2023-12-04T21:13:18;19.55;;;4.65;;
52740;SDS011;38634;52.138;9.912;2023-12-04T21:16:05;23.42;;;5.40;;
52740;SDS011;38634;52.138;9.912;2023-12-04T21:18:50;18.90;;;4.85;;
52740;SDS011;38634;52.138;9.912;2023-12-04T21:21:34;16.23;;;4.25;;
52740;SDS011;38634;52.138;9.912;2023-12-04T21:24:19;19.67;;;5.95;;
52740;SDS011;38634;52.138;9.912;2023-12-04T21:27:03;22.85;;;6.43;;
52740;SDS011;38634;52.138;9.912;2023-12-04T21:29:49;13.48;;;3.85;;
52740;SDS011;38634;52.138;9.912;2023-12-04T21:32:33;15.60;;;4.85;;
52740;SDS011;38634;52.138;9.912;2023-12-04T21:35:18;17.85;;;4.60;;
52740;SDS011;38634;52.138;9.912;2023-12-04T21:38:02;21.13;;;4.88;;
52740;SDS011;38634;52.138;9.912;2023-12-04T21:40:47;19.20;;;4.82;;
52740;SDS011;38634;52.138;9.912;2023-12-04T21:43:31;18.67;;;4.70;;
52740;SDS011;38634;52.138;9.912;2023-12-04T21:46:16;17.95;;;4.40;;
52740;SDS011;38634;52.138;9.912;2023-12-04T21:49:01;18.25;;;4.32;;
52740;SDS011;38634;52.138;9.912;2023-12-04T21:51:47;18.83;;;4.63;;
52740;SDS011;38634;52.138;9.912;2023-12-04T21:54:31;18.63;;;4.63;;
52740;SDS011;38634;52.138;9.912;2023-12-04T21:57:16;26.30;;;5.88;;
52740;SDS011;38634;52.138;9.912;2023-12-04T22:00:04;21.17;;;4.93;;
52740;SDS011;38634;52.138;9.912;2023-12-04T22:02:51;19.45;;;4.90;;
52740;SDS011;38634;52.138;9.912;2023-12-04T22:05:35;18.95;;;4.85;;
52740;SDS011;38634;52.138;9.912;2023-12-04T22:08:20;19.73;;;5.00;;
52740;SDS011;38634;52.138;9.912;2023-12-04T22:11:04;20.80;;;4.93;;
52740;SDS011;38634;52.138;9.912;2023-12-04T22:13:49;19.70;;;5.97;;
52740;SDS011;38634;52.138;9.912;2023-12-04T22:16:34;20.45;;;4.97;;
52740;SDS011;38634;52.138;9.912;2023-12-04T22:19:19;18.75;;;4.85;;
52740;SDS011;38634;52.138;9.912;2023-12-04T22:22:03;19.30;;;4.85;;
52740;SDS011;38634;52.138;9.912;2023-12-04T22:24:48;22.17;;;6.60;;
52740;SDS011;38634;52.138;9.912;2023-12-04T22:27:33;22.50;;;5.18;;
52740;SDS011;38634;52.138;9.912;2023-12-04T22:30:17;17.13;;;4.35;;
52740;SDS011;38634;52.138;9.912;2023-12-04T22:33:02;21.13;;;4.85;;
52740;SDS011;38634;52.138;9.912;2023-12-04T22:35:46;21.50;;;5.20;;
52740;SDS011;38634;52.138;9.912;2023-12-04T22:38:31;20.15;;;6.38;;
52740;SDS011;38634;52.138;9.912;2023-12-04T22:41:16;18.80;;;4.50;;
52740;SDS011;38634;52.138;9.912;2023-12-04T22:44:01;19.63;;;5.00;;
52740;SDS011;38634;52.138;9.912;2023-12-04T22:46:45;22.98;;;6.05;;
52740;SDS011;38634;52.138;9.912;2023-12-04T22:49:30;20.40;;;4.95;;
52740;SDS011;38634;52.138;9.912;2023-12-04T22:52:14;19.00;;;4.63;;
52740;SDS011;38634;52.138;9.912;2023-12-04T22:54:59;19.83;;;5.78;;
52740;SDS011;38634;52.138;9.912;2023-12-04T22:57:43;24.25;;;9.73;;
52740;SDS011;38634;52.138;9.912;2023-12-04T23:00:28;21.25;;;5.43;;
52740;SDS011;38634;52.138;9.912;2023-12-04T23:03:13;20.00;;;4.95;;
52740;SDS011;38634;52.138;9.912;2023-12-04T23:05:57;20.42;;;5.55;;
52740;SDS011;38634;52.138;9.912;2023-12-04T23:08:42;23.23;;;5.72;;
52740;SDS011;38634;52.138;9.912;2023-12-04T23:11:26;19.52;;;5.60;;
52740;SDS011;38634;52.138;9.912;2023-12-04T23:14:11;17.30;;;4.55;;
52740;SDS011;38634;52.138;9.912;2023-12-04T23:16:56;18.92;;;5.25;;
52740;SDS011;38634;52.138;9.912;2023-12-04T23:19:40;19.88;;;5.68;;
52740;SDS011;38634;52.138;9.912;2023-12-04T23:22:25;18.33;;;4.47;;
52740;SDS011;38634;52.138;9.912;2023-12-04T23:25:10;18.55;;;4.68;;
52740;SDS011;38634;52.138;9.912;2023-12-04T23:27:56;25.23;;;7.18;;
52740;SDS011;38634;52.138;9.912;2023-12-04T23:30:40;18.15;;;4.75;;
52740;SDS011;38634;52.138;9.912;2023-12-04T23:33:26;15.07;;;4.32;;
52740;SDS011;38634;52.138;9.912;2023-12-04T23:36:11;16.60;;;4.72;;
52740;SDS011;38634;52.138;9.912;2023-12-04T23:38:55;17.98;;;4.78;;
52740;SDS011;38634;52.138;9.912;2023-12-04T23:41:40;22.17;;;4.88;;
52740;SDS011;38634;52.138;9.912;2023-12-04T23:44:24;24.88;;;7.75;;
52740;SDS011;38634;52.138;9.912;2023-12-04T23:47:09;24.58;;;11.10;;
52740;SDS011;38634;52.138;9.912;2023-12-04T23:49:53;18.20;;;4.93;;
52740;SDS011;38634;52.138;9.912;2023-12-04T23:52:38;19.15;;;4.80;;
52740;SDS011;38634;52.138;9.912;2023-12-04T23:55:22;21.40;;;6.15;;
52740;SDS011;38634;52.138;9.912;2023-12-04T23:58:07;14.38;;;4.20;;
